Portada
METAR-TAF:

METAR-TAF

Aeroports :

Coober Pedy, Austràlia

latitud: 29-02-24S, longitud: 134-43-18E, altitud: 226 m

Observació

L'informe es va fer fa 23 minuts, a les 03:00 UTC
Vent 10 kt del Sud/Sud-Oest
Temperatura 33°C
Humitat 21%
Pressió 1014 hPa
Visibilitat 10 km o més

METAR: YCBP 210300Z AUTO 21010KT 9999 // NCD 33/08 Q1014

Hora: 13:53 (03:23 UTC)


TAF: manca

Observacions i pronòstics meteorològics de més de 4000 aeroports (METAR i TAF).

Les estacions disponibles són els punts grocs i vermells al mapa.

Posi el ratolí al punt desitjat per veure el nom de l'estació.

Feu clic per veure les observacions i els pronòstics meteorològics.

Per canviar el mapa: feu clic els botons verds amb una creu de color negre per apropar; al botó verd amb un guió per allunyar la imatge; o en les fletxes verdes per a mapes adjacents.


METAR-TAF: